sensor_id;sensor_type;location;lat;lon;timestamp;pressure;altitude;pressure_sealevel;temperature;humidity
54918;BME280;40818;50.562;7.454;2023-06-22T00:01:11;97893.50;;;20.22;100.00
54918;BME280;40818;50.562;7.454;2023-06-22T00:11:17;97887.63;;;20.37;100.00
54918;BME280;40818;50.562;7.454;2023-06-22T00:21:23;97898.19;;;20.37;100.00
54918;BME280;40818;50.562;7.454;2023-06-22T00:31:29;97911.72;;;20.42;100.00
54918;BME280;40818;50.562;7.454;2023-06-22T00:41:32;97924.44;;;20.55;100.00
54918;BME280;40818;50.562;7.454;2023-06-22T00:51:41;97917.78;;;20.69;100.00
54918;BME280;40818;50.562;7.454;2023-06-22T01:01:48;97916.78;;;20.70;100.00
54918;BME280;40818;50.562;7.454;2023-06-22T01:11:58;97924.38;;;20.73;100.00
54918;BME280;40818;50.562;7.454;2023-06-22T01:22:06;97921.25;;;20.77;98.84
54918;BME280;40818;50.562;7.454;2023-06-22T01:32:14;97907.06;;;20.70;100.00
54918;BME280;40818;50.562;7.454;2023-06-22T01:42:19;97887.88;;;20.60;100.00
54918;BME280;40818;50.562;7.454;2023-06-22T01:52:25;97882.44;;;20.53;100.00
54918;BME280;40818;50.562;7.454;2023-06-22T02:02:35;97881.31;;;20.21;100.00
54918;BME280;40818;50.562;7.454;2023-06-22T02:12:43;97889.75;;;19.72;100.00
54918;BME280;40818;50.562;7.454;2023-06-22T02:22:47;97903.28;;;19.59;100.00
54918;BME280;40818;50.562;7.454;2023-06-22T02:32:53;97891.38;;;19.73;100.00
54918;BME280;40818;50.562;7.454;2023-06-22T02:42:59;97858.91;;;19.65;100.00
54918;BME280;40818;50.562;7.454;2023-06-22T02:53:05;97845.38;;;19.33;100.00
54918;BME280;40818;50.562;7.454;2023-06-22T03:03:12;97859.00;;;19.10;100.00
54918;BME280;40818;50.562;7.454;2023-06-22T03:13:20;97861.41;;;19.04;100.00
54918;BME280;40818;50.562;7.454;2023-06-22T03:23:25;97860.97;;;18.90;100.00
54918;BME280;40818;50.562;7.454;2023-06-22T03:33:32;97855.72;;;18.63;100.00
54918;BME280;40818;50.562;7.454;2023-06-22T03:43:35;97834.88;;;18.33;100.00
54918;BME280;40818;50.562;7.454;2023-06-22T03:53:41;97844.25;;;18.18;100.00
54918;BME280;40818;50.562;7.454;2023-06-22T04:03:44;97829.94;;;18.30;100.00
54918;BME280;40818;50.562;7.454;2023-06-22T04:13:52;97835.00;;;18.14;100.00
54918;BME280;40818;50.562;7.454;2023-06-22T04:23:56;97833.63;;;18.10;100.00
54918;BME280;40818;50.562;7.454;2023-06-22T04:34:02;97820.75;;;18.34;100.00
54918;BME280;40818;50.562;7.454;2023-06-22T04:44:06;97830.41;;;18.62;100.00
54918;BME280;40818;50.562;7.454;2023-06-22T04:54:12;97823.16;;;18.73;100.00
54918;BME280;40818;50.562;7.454;2023-06-22T05:04:16;97821.38;;;18.92;100.00
54918;BME280;40818;50.562;7.454;2023-06-22T05:14:22;97820.28;;;19.21;100.00
54918;BME280;40818;50.562;7.454;2023-06-22T05:24:25;97807.00;;;19.49;100.00
54918;BME280;40818;50.562;7.454;2023-06-22T05:34:31;97803.09;;;19.87;100.00
54918;BME280;40818;50.562;7.454;2023-06-22T05:44:35;97806.06;;;20.27;100.00
54918;BME280;40818;50.562;7.454;2023-06-22T05:54:44;97810.81;;;20.99;100.00
54918;BME280;40818;50.562;7.454;2023-06-22T06:04:47;97816.84;;;21.74;100.00
54918;BME280;40818;50.562;7.454;2023-06-22T06:14:54;97809.22;;;22.58;100.00
54918;BME280;40818;50.562;7.454;2023-06-22T06:24:57;97823.69;;;22.71;100.00
54918;BME280;40818;50.562;7.454;2023-06-22T06:35:05;97827.28;;;23.01;100.00
54918;BME280;40818;50.562;7.454;2023-06-22T06:45:09;97812.34;;;23.08;100.00
54918;BME280;40818;50.562;7.454;2023-06-22T06:55:15;97824.56;;;23.32;100.00
54918;BME280;40818;50.562;7.454;2023-06-22T07:05:20;97802.31;;;23.57;100.00
54918;BME280;40818;50.562;7.454;2023-06-22T07:15:26;97811.09;;;24.02;100.00
54918;BME280;40818;50.562;7.454;2023-06-22T07:25:30;97784.69;;;24.09;98.52
54918;BME280;40818;50.562;7.454;2023-06-22T07:35:36;97773.88;;;24.10;95.54
54918;BME280;40818;50.562;7.454;2023-06-22T07:45:39;97768.88;;;23.85;97.10
54918;BME280;40818;50.562;7.454;2023-06-22T07:55:47;97768.41;;;23.82;99.88
54918;BME280;40818;50.562;7.454;2023-06-22T08:05:51;97772.47;;;23.93;97.36
54918;BME280;40818;50.562;7.454;2023-06-22T08:15:57;97749.09;;;24.40;92.62
54918;BME280;40818;50.562;7.454;2023-06-22T08:26:00;97730.47;;;24.54;92.97
54918;BME280;40818;50.562;7.454;2023-06-22T08:36:06;97719.66;;;24.71;92.01
54918;BME280;40818;50.562;7.454;2023-06-22T08:46:11;97717.13;;;24.91;84.58
54918;BME280;40818;50.562;7.454;2023-06-22T08:56:17;97705.38;;;24.72;87.00
54918;BME280;40818;50.562;7.454;2023-06-22T09:06:21;97689.78;;;24.62;90.89
54918;BME280;40818;50.562;7.454;2023-06-22T09:16:27;97664.72;;;25.00;89.52
54918;BME280;40818;50.562;7.454;2023-06-22T09:26:31;97621.69;;;25.11;86.21
54918;BME280;40818;50.562;7.454;2023-06-22T09:36:37;97590.69;;;24.83;85.99
54918;BME280;40818;50.562;7.454;2023-06-22T09:46:41;97606.13;;;24.66;86.05
54918;BME280;40818;50.562;7.454;2023-06-22T09:56:52;97597.34;;;24.44;85.37
54918;BME280;40818;50.562;7.454;2023-06-22T10:06:55;97627.56;;;24.00;88.79
54918;BME280;40818;50.562;7.454;2023-06-22T10:17:02;97596.63;;;23.71;90.34
54918;BME280;40818;50.562;7.454;2023-06-22T10:27:07;97687.63;;;23.78;90.61
54918;BME280;40818;50.562;7.454;2023-06-22T10:37:13;97699.31;;;24.20;92.00
54918;BME280;40818;50.562;7.454;2023-06-22T10:47:17;97667.19;;;23.72;100.00
54918;BME280;40818;50.562;7.454;2023-06-22T10:57:23;97651.72;;;23.75;100.00
54918;BME280;40818;50.562;7.454;2023-06-22T11:07:26;97620.53;;;23.92;100.00
54918;BME280;40818;50.562;7.454;2023-06-22T11:17:32;97735.28;;;24.08;100.00
54918;BME280;40818;50.562;7.454;2023-06-22T11:27:36;97628.16;;;23.29;100.00
54918;BME280;40818;50.562;7.454;2023-06-22T11:37:42;97604.63;;;23.56;100.00
54918;BME280;40818;50.562;7.454;2023-06-22T11:47:45;97606.78;;;23.67;100.00
54918;BME280;40818;50.562;7.454;2023-06-22T11:57:56;97578.50;;;23.52;95.23
54918;BME280;40818;50.562;7.454;2023-06-22T12:08:01;97554.00;;;22.99;97.93
54918;BME280;40818;50.562;7.454;2023-06-22T12:18:07;97545.94;;;22.32;100.00
54918;BME280;40818;50.562;7.454;2023-06-22T12:28:10;97523.22;;;21.85;100.00
54918;BME280;40818;50.562;7.454;2023-06-22T12:38:17;97494.81;;;22.40;100.00
54918;BME280;40818;50.562;7.454;2023-06-22T12:48:21;97474.06;;;23.04;100.00
54918;BME280;40818;50.562;7.454;2023-06-22T12:58:28;97434.59;;;23.45;97.12
54918;BME280;40818;50.562;7.454;2023-06-22T13:08:31;97425.13;;;23.86;91.43
54918;BME280;40818;50.562;7.454;2023-06-22T13:18:37;97409.34;;;24.69;90.98
54918;BME280;40818;50.562;7.454;2023-06-22T13:28:40;97378.22;;;25.25;91.51
54918;BME280;40818;50.562;7.454;2023-06-22T13:38:47;97336.34;;;25.34;90.27
54918;BME280;40818;50.562;7.454;2023-06-22T13:48:50;97310.19;;;25.31;90.48
54918;BME280;40818;50.562;7.454;2023-06-22T13:58:56;97279.13;;;25.04;91.51
54918;BME280;40818;50.562;7.454;2023-06-22T14:08:59;97248.88;;;24.85;93.97
54918;BME280;40818;50.562;7.454;2023-06-22T14:19:06;97244.19;;;24.74;97.81
54918;BME280;40818;50.562;7.454;2023-06-22T14:29:09;97186.16;;;24.44;99.85
54918;BME280;40818;50.562;7.454;2023-06-22T14:39:15;97311.16;;;20.37;100.00
54918;BME280;40818;50.562;7.454;2023-06-22T14:49:18;97421.56;;;20.80;100.00
54918;BME280;40818;50.562;7.454;2023-06-22T14:59:24;97422.19;;;20.34;100.00
54918;BME280;40818;50.562;7.454;2023-06-22T15:09:28;97318.88;;;19.18;100.00
54918;BME280;40818;50.562;7.454;2023-06-22T15:19:34;97316.41;;;19.00;100.00
54918;BME280;40818;50.562;7.454;2023-06-22T15:29:38;97320.00;;;18.99;100.00
54918;BME280;40818;50.562;7.454;2023-06-22T15:39:44;97284.78;;;18.84;100.00
54918;BME280;40818;50.562;7.454;2023-06-22T15:49:48;97310.81;;;18.95;100.00
54918;BME280;40818;50.562;7.454;2023-06-22T15:59:54;97320.50;;;19.03;100.00
54918;BME280;40818;50.562;7.454;2023-06-22T16:09:58;97299.31;;;19.13;100.00
54918;BME280;40818;50.562;7.454;2023-06-22T16:20:05;97257.66;;;19.33;100.00
54918;BME280;40818;50.562;7.454;2023-06-22T16:30:09;97204.78;;;19.59;100.00
54918;BME280;40818;50.562;7.454;2023-06-22T16:40:15;97199.47;;;19.75;100.00
54918;BME280;40818;50.562;7.454;2023-06-22T16:50:20;97203.16;;;19.98;100.00
54918;BME280;40818;50.562;7.454;2023-06-22T17:00:26;97238.91;;;20.23;100.00
54918;BME280;40818;50.562;7.454;2023-06-22T17:10:31;97280.19;;;20.00;100.00
54918;BME280;40818;50.562;7.454;2023-06-22T17:20:38;97263.41;;;20.01;100.00
54918;BME280;40818;50.562;7.454;2023-06-22T17:30:41;97277.81;;;20.21;100.00
54918;BME280;40818;50.562;7.454;2023-06-22T17:40:47;97256.72;;;20.21;100.00
54918;BME280;40818;50.562;7.454;2023-06-22T17:50:51;97241.69;;;20.30;100.00
54918;BME280;40818;50.562;7.454;2023-06-22T18:00:57;97209.63;;;20.41;100.00
54918;BME280;40818;50.562;7.454;2023-06-22T18:11:02;97210.56;;;20.49;100.00
54918;BME280;40818;50.562;7.454;2023-06-22T18:21:09;97211.72;;;20.54;100.00
54918;BME280;40818;50.562;7.454;2023-06-22T18:31:13;97197.63;;;20.62;100.00
54918;BME280;40818;50.562;7.454;2023-06-22T18:41:24;97192.84;;;20.66;100.00
54918;BME280;40818;50.562;7.454;2023-06-22T18:51:53;97197.44;;;20.63;100.00
54918;BME280;40818;50.562;7.454;2023-06-22T19:02:02;97197.81;;;20.60;100.00
54918;BME280;40818;50.562;7.454;2023-06-22T19:12:30;97229.22;;;20.47;100.00
54918;BME280;40818;50.562;7.454;2023-06-22T19:22:53;97237.16;;;20.39;100.00
54918;BME280;40818;50.562;7.454;2023-06-22T19:32:58;97257.50;;;20.30;100.00
54918;BME280;40818;50.562;7.454;2023-06-22T19:43:11;97269.25;;;20.19;100.00
54918;BME280;40818;50.562;7.454;2023-06-22T19:53:15;97262.88;;;20.05;100.00
54918;BME280;40818;50.562;7.454;2023-06-22T20:03:26;97285.19;;;19.78;100.00
54918;BME280;40818;50.562;7.454;2023-06-22T20:13:30;97297.78;;;19.51;100.00
54918;BME280;40818;50.562;7.454;2023-06-22T20:23:36;97320.50;;;19.11;100.00
54918;BME280;40818;50.562;7.454;2023-06-22T20:33:40;97335.25;;;18.79;100.00
54918;BME280;40818;50.562;7.454;2023-06-22T20:43:51;97375.25;;;18.48;100.00
54918;BME280;40818;50.562;7.454;2023-06-22T20:53:55;97351.63;;;18.05;100.00
54918;BME280;40818;50.562;7.454;2023-06-22T21:04:01;97391.59;;;17.73;100.00
54918;BME280;40818;50.562;7.454;2023-06-22T21:14:05;97418.13;;;17.26;100.00
54918;BME280;40818;50.562;7.454;2023-06-22T21:24:11;97431.53;;;17.04;100.00
54918;BME280;40818;50.562;7.454;2023-06-22T21:34:14;97413.28;;;16.85;100.00
54918;BME280;40818;50.562;7.454;2023-06-22T21:44:20;97424.47;;;16.59;100.00
54918;BME280;40818;50.562;7.454;2023-06-22T21:54:24;97433.13;;;16.32;100.00
54918;BME280;40818;50.562;7.454;2023-06-22T22:04:30;97462.09;;;16.30;100.00
54918;BME280;40818;50.562;7.454;2023-06-22T22:14:33;97470.13;;;16.19;100.00
54918;BME280;40818;50.562;7.454;2023-06-22T22:24:39;97462.81;;;16.13;100.00
54918;BME280;40818;50.562;7.454;2023-06-22T22:34:42;97516.72;;;16.06;100.00
54918;BME280;40818;50.562;7.454;2023-06-22T22:44:48;97553.66;;;16.12;100.00
54918;BME280;40818;50.562;7.454;2023-06-22T22:54:52;97536.41;;;16.10;100.00
54918;BME280;40818;50.562;7.454;2023-06-22T23:04:58;97575.03;;;16.08;100.00
54918;BME280;40818;50.562;7.454;2023-06-22T23:15:03;97663.19;;;15.97;100.00
54918;BME280;40818;50.562;7.454;2023-06-22T23:25:09;97675.06;;;16.01;100.00
54918;BME280;40818;50.562;7.454;2023-06-22T23:35:13;97669.13;;;15.99;100.00
54918;BME280;40818;50.562;7.454;2023-06-22T23:45:20;97662.50;;;15.95;100.00
54918;BME280;40818;50.562;7.454;2023-06-22T23:55:23;97669.38;;;15.96;100.00
